Oakwood Manor, GA

3:17 PM EST on February 21, 2017 (GMT -0500)
MGA310 | | Change Station

Elev 800 ft 33.51 °N, 84.23 °W | Updated 8 minutes ago

Rain
Rain
69.0 °F
Feels Like 69.0 °F
N
6.0
Wind Variable Wind from SE
Gusts 12.0 mph

Today
High -- | Low -- °F
--% Chance of Precip.
Yesterday
High -- | Low -- °F
Precip. -- in
Pressure 30.00 in
Visibility 5.0 miles
Clouds Mostly Cloudy 3000 ft
Mostly Cloudy 5000 ft
Overcast 9000 ft
Dew Point 56 °F
Humidity 63%
Rainfall 0.01 in
Snow Depth Not available.
7:14 AM 6:27 PM
Waning Crescent, 23% visible
SPECI KATL 212007Z 14010G17KT 5SM -RA BKN030 BKN050 OVC090 19/14 A3000 RMK AO2 RAB1955 P0001 T01890144
Pressure 30.00 in
Visibility 5.0 miles
Clouds Mostly Cloudy 3000 ft
Mostly Cloudy 5000 ft
Overcast 9000 ft
Dew Point 56 °F
Humidity 63%
Rainfall 0.01 in
Snow Depth Not available.
7:14 AM 6:27 PM
Waning Crescent, 23% visible
SPECI KATL 212007Z 14010G17KT 5SM -RA BKN030 BKN050 OVC090 19/14 A3000 RMK AO2 RAB1955 P0001 T01890144

Get Your Daily Forecast Email!

Thanks for signing up!

Be on the lookout for a verification email in your inbox.

You'll start receiving the daily forecast at 8 AM.

×

10-Day Weather Forecast

Almanac

Astronomy

Feb. 21, 2017 Rise Set
Actual Time
Civil Twilight
Nautical Twilight
Astronomical Twilight
Moon
Length of Visible Light
Length of Day
Tomorrow will be .
, % of the Moon is Illuminated

Today's Extremes

State Highs State Lows

Community

WunderPhotos

Upload Photos

1,962,540 photos uploaded!

WunderBlog® & News

Nearby

Air Quality

  Air Quality AQ Index Pollutant
Not available.

Snow Depth

Station Depth Elevation

Earthquake Activity

City Distance Mag. Time & Date
Minimum magnitude displayed is 2.5.

Coastal Water Temperatures

Place Temperature

Stations

Nearby Weather Stations

Station Location Temp. Windchill Dew Point Humidity Wind Precip. Elev Updated Type
                   

Watches & Warnings

There are currently no watches in effect.